Terminal Aerodrome Forecast
Issued by NWS Louisville, KY

Home | Current Version | Previous Version | Text Only | Print | Product List | Glossary On
Versions: 1 2 3 4 5 6 7 8 9 10 11 12 13 14
000
FTUS43 KLMK 201731
TAFSDF
TAF
KSDF 201731Z 2018/2124 VRB05KT P6SM VCTS SCT045CB BKN150
      TEMPO 2019/2021 3SM -SHRA BKN025
     FM202100 VRB04KT P6SM SCT150
     FM210000 VRB04KT P6SM FEW100 FEW250
     FM211300 VRB04KT P6SM SCT040=

USA.gov is the U.S. government's official web portal to all federal, state and local government web resources and services.